createdAt,value
2022-10-11T00:01:02.345Z,3.87
2022-10-11T00:03:30.553Z,3.40
2022-10-11T00:05:58.729Z,3.97
2022-10-11T00:08:27.240Z,3.27
2022-10-11T00:11:00.302Z,4.33
2022-10-11T00:13:29.651Z,3.30
2022-10-11T00:15:58.714Z,3.63
2022-10-11T00:18:28.412Z,3.70
2022-10-11T00:21:04.039Z,3.50
2022-10-11T00:23:32.957Z,3.63
2022-10-11T00:26:03.126Z,3.40
2022-10-11T00:28:32.076Z,3.30
2022-10-11T00:31:00.258Z,3.30
2022-10-11T00:33:29.890Z,3.73
2022-10-11T00:36:00.285Z,3.73
2022-10-11T00:38:28.478Z,3.50
2022-10-11T00:40:56.641Z,3.60
2022-10-11T00:43:27.491Z,2.90
2022-10-11T00:46:29.845Z,3.50
2022-10-11T00:49:05.077Z,3.73
2022-10-11T00:51:44.451Z,2.60
2022-10-11T00:54:18.496Z,3.30
2022-10-11T00:56:50.930Z,3.30
2022-10-11T00:59:24.159Z,3.03
2022-10-11T01:01:52.656Z,3.10
2022-10-11T01:04:22.279Z,3.80
2022-10-11T01:06:51.900Z,2.90
2022-10-11T01:09:21.517Z,3.07
2022-10-11T01:11:51.436Z,3.87
2022-10-11T01:14:55.122Z,3.57
2022-10-11T01:17:33.243Z,3.20
2022-10-11T01:20:35.493Z,3.03
2022-10-11T01:23:46.050Z,3.13
2022-10-11T01:26:42.927Z,3.67
2022-10-11T01:29:19.701Z,3.40
2022-10-11T01:31:56.597Z,3.37
2022-10-11T01:34:32.219Z,3.03
2022-10-11T01:37:05.696Z,3.60
2022-10-11T01:39:40.787Z,2.97
2022-10-11T01:42:12.941Z,3.13
2022-10-11T01:44:43.729Z,3.70
2022-10-11T01:47:14.084Z,3.00
2022-10-11T01:49:42.766Z,3.60
2022-10-11T01:52:13.397Z,3.40
2022-10-11T01:55:09.306Z,3.30
2022-10-11T01:57:53.058Z,2.93
2022-10-11T02:00:24.016Z,3.60
2022-10-11T02:03:16.067Z,3.33
2022-10-11T02:05:49.994Z,2.90
2022-10-11T02:08:26.683Z,3.63
2022-10-11T02:11:02.070Z,2.80
2022-10-11T02:13:35.416Z,3.77
2022-10-11T02:16:09.870Z,3.37
2022-10-11T02:18:45.190Z,3.50
2022-10-11T02:21:17.993Z,3.47
2022-10-11T02:23:51.099Z,3.07
2022-10-11T02:26:21.969Z,3.40
2022-10-11T02:28:51.955Z,3.73
2022-10-11T02:31:21.680Z,4.13
2022-10-11T02:33:57.990Z,4.13
2022-10-11T02:36:33.507Z,2.97
2022-10-11T02:39:08.989Z,2.80
2022-10-11T02:41:40.901Z,3.20
2022-10-11T02:44:14.113Z,3.73
2022-10-11T02:46:44.149Z,3.40
2022-10-11T02:49:14.990Z,3.37
2022-10-11T02:51:43.520Z,3.30
2022-10-11T02:54:11.723Z,3.03
2022-10-11T02:56:39.876Z,3.27
2022-10-11T02:59:08.006Z,3.90
2022-10-11T03:01:36.239Z,2.97
2022-10-11T03:04:04.481Z,3.60
2022-10-11T03:06:34.091Z,4.67
2022-10-11T03:09:02.302Z,3.80
2022-10-11T03:11:30.443Z,2.80
2022-10-11T03:13:58.548Z,3.40
2022-10-11T03:16:26.685Z,3.37
2022-10-11T03:18:54.820Z,3.53
2022-10-11T03:21:25.081Z,3.00
2022-10-11T03:23:54.625Z,2.83
2022-10-11T03:26:23.386Z,3.33
2022-10-11T03:28:51.620Z,3.43
2022-10-11T03:31:20.637Z,3.57
2022-10-11T03:33:49.159Z,3.30
2022-10-11T03:36:17.423Z,3.33
2022-10-11T03:38:45.538Z,3.07
2022-10-11T03:41:15.141Z,3.20
2022-10-11T03:43:43.257Z,3.30
2022-10-11T03:46:11.410Z,3.63
2022-10-11T03:48:40.083Z,3.13
2022-10-11T03:51:08.252Z,3.57
2022-10-11T03:53:38.030Z,4.83
2022-10-11T03:56:08.703Z,4.40
2022-10-11T03:58:38.551Z,4.00
2022-10-11T04:01:06.647Z,3.70
2022-10-11T04:03:35.247Z,4.03
2022-10-11T04:06:03.826Z,6.50
2022-10-11T04:08:32.229Z,4.47
2022-10-11T04:11:00.422Z,4.50
2022-10-11T04:13:28.599Z,4.67
2022-10-11T04:15:58.110Z,3.50
2022-10-11T04:18:26.276Z,3.43
2022-10-11T04:20:54.431Z,3.50
2022-10-11T04:23:22.742Z,3.50
2022-10-11T04:25:50.963Z,3.30
2022-10-11T04:28:19.238Z,3.10
2022-10-11T04:30:48.604Z,3.23
2022-10-11T04:33:18.141Z,4.27
2022-10-11T04:35:46.238Z,3.17
2022-10-11T04:38:14.444Z,5.03
2022-10-11T04:40:42.553Z,4.33
2022-10-11T04:43:10.679Z,4.07
2022-10-11T04:45:38.782Z,4.27
2022-10-11T04:48:07.994Z,4.30
2022-10-11T04:50:37.633Z,3.33
2022-10-11T04:53:05.761Z,3.57
2022-10-11T04:55:34.158Z,3.00
2022-10-11T04:58:02.311Z,3.17
2022-10-11T05:00:30.768Z,2.60
2022-10-11T05:02:58.916Z,3.40
2022-10-11T05:05:27.010Z,2.77
2022-10-11T05:07:56.630Z,3.20
2022-10-11T05:10:24.697Z,3.17
2022-10-11T05:12:52.931Z,3.43
2022-10-11T05:15:21.018Z,2.67
2022-10-11T05:17:49.222Z,2.70
2022-10-11T05:20:17.610Z,2.80
2022-10-11T05:22:45.806Z,2.50
2022-10-11T05:25:15.353Z,2.43
2022-10-11T05:27:43.513Z,2.40
2022-10-11T05:30:12.803Z,2.60
2022-10-11T05:32:41.033Z,3.30
2022-10-11T05:35:10.383Z,3.23
2022-10-11T05:37:38.514Z,2.50
2022-10-11T05:40:08.493Z,3.20
2022-10-11T05:42:38.002Z,2.97
2022-10-11T05:45:08.009Z,2.87
2022-10-11T05:47:36.109Z,3.00
2022-10-11T05:50:04.399Z,3.10
2022-10-11T05:52:32.544Z,2.80
2022-10-11T05:55:00.684Z,3.30
2022-10-11T05:57:28.811Z,2.80
2022-10-11T05:59:58.283Z,3.00
2022-10-11T06:02:26.449Z,3.60
2022-10-11T06:04:54.596Z,2.80
2022-10-11T06:07:23.145Z,4.10
2022-10-11T06:09:52.190Z,3.13
2022-10-11T06:12:21.665Z,3.20
2022-10-11T06:14:49.838Z,3.37
2022-10-11T06:17:19.328Z,3.40
2022-10-11T06:19:47.443Z,2.97
2022-10-11T06:22:15.564Z,3.57
2022-10-11T06:24:43.686Z,4.23
2022-10-11T06:27:12.057Z,5.90
2022-10-11T06:29:40.200Z,5.90
2022-10-11T06:32:08.355Z,5.80
2022-10-11T06:34:37.905Z,5.60
2022-10-11T06:37:06.093Z,5.77
2022-10-11T06:39:34.447Z,5.33
2022-10-11T06:42:02.912Z,6.40
2022-10-11T06:44:31.299Z,5.60
2022-10-11T06:46:59.454Z,4.90
2022-10-11T06:49:27.620Z,4.73
2022-10-11T06:51:57.055Z,6.57
2022-10-11T06:54:25.576Z,5.37
2022-10-11T06:56:53.729Z,4.63
2022-10-11T06:59:22.097Z,4.83
2022-10-11T07:01:50.259Z,3.87
2022-10-11T07:04:18.401Z,3.87
2022-10-11T07:06:46.481Z,3.87
2022-10-11T07:09:16.000Z,3.40
2022-10-11T07:11:44.288Z,3.03
2022-10-11T07:14:12.463Z,3.47
2022-10-11T07:16:40.598Z,2.70
2022-10-11T07:19:08.862Z,2.37
2022-10-11T07:21:37.550Z,2.83
2022-10-11T07:24:06.715Z,2.67
2022-10-11T07:26:38.838Z,2.87
2022-10-11T07:29:08.934Z,2.43
2022-10-11T07:31:39.994Z,4.10
2022-10-11T07:34:08.278Z,2.83
2022-10-11T07:36:37.201Z,3.27
2022-10-11T07:39:07.135Z,2.73
2022-10-11T07:41:43.116Z,2.60
2022-10-11T07:44:13.987Z,1.93
2022-10-11T07:46:42.116Z,2.17
2022-10-11T07:49:10.274Z,2.73
2022-10-11T07:51:38.430Z,2.50
2022-10-11T07:54:07.567Z,2.70
2022-10-11T07:56:39.979Z,3.50
2022-10-11T07:59:08.255Z,2.30
2022-10-11T08:01:36.415Z,2.60
2022-10-11T08:04:04.734Z,2.33
2022-10-11T08:06:33.337Z,2.63
2022-10-11T08:09:02.950Z,2.57
2022-10-11T08:11:34.267Z,2.70
2022-10-11T08:14:08.475Z,2.50
2022-10-11T08:16:36.898Z,2.63
2022-10-11T08:19:05.628Z,2.40
2022-10-11T08:21:33.938Z,2.40
2022-10-11T08:24:04.195Z,2.50
2022-10-11T08:26:33.017Z,2.40
2022-10-11T08:29:03.958Z,2.20
2022-10-11T08:31:33.462Z,2.33
2022-10-11T08:34:02.699Z,2.30
2022-10-11T08:36:31.018Z,2.30
2022-10-11T08:38:59.364Z,2.73
2022-10-11T08:41:32.986Z,2.90
2022-10-11T08:44:21.757Z,1.97
2022-10-11T08:46:59.532Z,2.27
2022-10-11T08:49:32.580Z,2.80
2022-10-11T08:52:05.778Z,2.00
2022-10-11T08:54:45.722Z,2.40
2022-10-11T08:57:17.594Z,2.40
2022-10-11T08:59:51.164Z,2.53
2022-10-11T09:03:03.121Z,2.57
2022-10-11T09:05:29.182Z,1.97
2022-10-11T09:08:09.461Z,1.93
2022-10-11T09:10:56.478Z,2.47
2022-10-11T09:13:52.574Z,2.50
2022-10-11T09:16:31.846Z,2.30
2022-10-11T09:19:25.273Z,1.93
2022-10-11T09:22:05.759Z,2.10
2022-10-11T09:25:01.561Z,2.30
2022-10-11T09:28:01.223Z,1.90
2022-10-11T09:30:25.361Z,2.07
2022-10-11T09:33:10.992Z,2.07
2022-10-11T09:35:44.281Z,2.50
2022-10-11T09:38:29.246Z,2.20
2022-10-11T09:41:10.847Z,2.83
2022-10-11T09:43:39.345Z,2.00
2022-10-11T09:46:20.976Z,3.23
2022-10-11T09:48:51.930Z,1.67
2022-10-11T09:51:23.557Z,2.53
2022-10-11T09:54:00.684Z,1.70
2022-10-11T09:56:31.607Z,1.90
2022-10-11T09:59:28.430Z,2.47
2022-10-11T10:02:24.235Z,2.17
2022-10-11T10:05:05.709Z,2.60
2022-10-11T10:07:36.147Z,1.90
2022-10-11T10:10:31.203Z,1.73
2022-10-11T10:13:02.818Z,1.67
2022-10-11T10:15:33.340Z,1.80
2022-10-11T10:18:02.088Z,1.60
2022-10-11T10:20:35.314Z,1.90
2022-10-11T10:23:10.580Z,1.20
2022-10-11T10:25:43.486Z,1.70
2022-10-11T10:28:22.520Z,1.53
2022-10-11T10:30:55.833Z,2.33
2022-10-11T10:33:26.371Z,2.03
2022-10-11T10:36:02.423Z,2.10
2022-10-11T10:38:37.380Z,2.10
2022-10-11T10:41:10.692Z,2.20
2022-10-11T10:43:41.508Z,1.70
2022-10-11T10:46:23.636Z,1.93
2022-10-11T10:49:28.681Z,1.97
2022-10-11T10:52:05.910Z,1.73
2022-10-11T10:54:42.003Z,1.90
2022-10-11T10:57:20.878Z,1.63
2022-10-11T11:00:11.472Z,2.27
2022-10-11T11:02:50.066Z,1.60
2022-10-11T11:05:32.139Z,1.60
2022-10-11T11:08:14.718Z,1.90
2022-10-11T11:10:50.855Z,1.70
2022-10-11T11:13:30.777Z,1.57
2022-10-11T11:16:12.509Z,2.87
2022-10-11T11:18:52.526Z,3.00
2022-10-11T11:21:34.992Z,2.00
2022-10-11T11:24:19.907Z,2.30
2022-10-11T11:26:55.747Z,2.17
2022-10-11T11:29:49.827Z,1.93
2022-10-11T11:32:30.059Z,1.70
2022-10-11T11:35:03.696Z,2.40
2022-10-11T11:37:36.109Z,2.20
2022-10-11T11:40:15.711Z,1.93
2022-10-11T11:42:49.445Z,1.90
2022-10-11T11:45:23.248Z,2.00
2022-10-11T11:47:57.192Z,2.40
2022-10-11T11:50:28.642Z,2.47
2022-10-11T11:53:04.232Z,1.83
2022-10-11T11:55:44.932Z,2.10
2022-10-11T11:58:28.937Z,1.83
2022-10-11T12:01:08.515Z,1.50
2022-10-11T12:03:42.712Z,2.37
2022-10-11T12:06:27.703Z,2.30
2022-10-11T12:09:09.566Z,1.73
2022-10-11T12:11:49.697Z,1.73
2022-10-11T12:14:30.977Z,1.73
2022-10-11T12:17:19.120Z,1.80
2022-10-11T12:20:11.555Z,1.77
2022-10-11T12:22:53.504Z,1.70
2022-10-11T12:25:42.483Z,1.70
2022-10-11T12:29:03.684Z,1.63
2022-10-11T12:31:35.624Z,1.40
2022-10-11T12:34:34.689Z,1.37
2022-10-11T12:37:51.956Z,1.60
2022-10-11T12:40:41.800Z,1.80
2022-10-11T12:43:38.046Z,2.43
2022-10-11T12:46:40.670Z,1.93
2022-10-11T12:49:33.244Z,1.53
2022-10-11T12:52:04.657Z,1.47
2022-10-11T12:55:04.939Z,1.40
2022-10-11T12:58:07.582Z,1.37
2022-10-11T13:00:45.602Z,1.50
2022-10-11T13:03:35.377Z,1.70
2022-10-11T13:06:15.424Z,1.80
2022-10-11T13:08:49.635Z,1.70
2022-10-11T13:11:24.623Z,1.60
2022-10-11T13:13:57.301Z,1.90
2022-10-11T13:16:29.287Z,1.70
2022-10-11T13:19:01.075Z,1.50
2022-10-11T13:21:37.263Z,1.43
2022-10-11T13:24:14.743Z,1.60
2022-10-11T13:26:46.809Z,1.83
2022-10-11T13:29:18.305Z,1.73
2022-10-11T13:31:48.562Z,1.80
2022-10-11T13:34:23.052Z,1.50
2022-10-11T13:36:57.653Z,1.60
2022-10-11T13:39:31.487Z,1.77
2022-10-11T13:42:01.502Z,2.20
2022-10-11T13:44:29.831Z,1.90
2022-10-11T13:46:57.967Z,2.33
2022-10-11T13:49:39.137Z,1.50
2022-10-11T13:52:22.202Z,1.70
2022-10-11T13:55:14.693Z,1.70
2022-10-11T13:57:46.368Z,1.90
2022-10-11T14:00:29.509Z,1.40
2022-10-11T14:03:03.718Z,1.50
2022-10-11T14:05:39.201Z,1.67
2022-10-11T14:08:22.227Z,1.70
2022-10-11T14:10:56.699Z,1.27
2022-10-11T14:13:31.669Z,1.87
2022-10-11T14:16:03.606Z,1.43
2022-10-11T14:18:47.316Z,1.83
2022-10-11T14:21:51.257Z,1.70
2022-10-11T14:24:19.453Z,1.50
2022-10-11T14:26:50.811Z,1.73
2022-10-11T14:29:25.294Z,2.00
2022-10-11T14:32:03.270Z,1.37
2022-10-11T14:34:32.375Z,1.43
2022-10-11T14:37:01.933Z,2.00
2022-10-11T14:39:33.760Z,1.50
2022-10-11T14:42:01.877Z,1.63
2022-10-11T14:44:30.046Z,1.47
2022-10-11T14:46:58.133Z,2.43
2022-10-11T14:49:29.315Z,1.60
2022-10-11T14:51:59.530Z,1.90
2022-10-11T14:54:30.887Z,2.93
2022-10-11T14:57:01.526Z,2.43
2022-10-11T14:59:36.331Z,2.70
2022-10-11T15:02:06.648Z,2.20
2022-10-11T15:04:35.046Z,1.70
2022-10-11T15:07:03.787Z,1.97
2022-10-11T15:09:33.348Z,1.70
2022-10-11T15:12:01.564Z,1.80
2022-10-11T15:14:29.761Z,1.60
2022-10-11T15:16:57.877Z,1.83
2022-10-11T15:19:26.770Z,1.47
2022-10-11T15:21:54.908Z,1.40
2022-10-11T15:24:23.035Z,1.70
2022-10-11T15:26:53.294Z,1.40
2022-10-11T15:29:24.014Z,1.27
2022-10-11T15:31:52.639Z,1.70
2022-10-11T15:34:21.339Z,1.30
2022-10-11T15:36:49.975Z,1.73
2022-10-11T15:39:27.496Z,1.60
2022-10-11T15:41:58.605Z,1.37
2022-10-11T15:44:27.261Z,1.60
2022-10-11T15:46:55.461Z,1.63
2022-10-11T15:49:23.675Z,1.73
2022-10-11T15:51:51.891Z,1.40
2022-10-11T15:54:20.025Z,1.57
2022-10-11T15:56:48.138Z,1.73
2022-10-11T15:59:18.054Z,1.77
2022-10-11T16:01:46.927Z,1.60
2022-10-11T16:04:15.187Z,1.80
2022-10-11T16:06:43.267Z,1.57
2022-10-11T16:09:11.362Z,2.00
2022-10-11T16:11:39.697Z,1.50
2022-10-11T16:14:07.859Z,2.07
2022-10-11T16:16:37.412Z,1.93
2022-10-11T16:19:06.249Z,2.47
2022-10-11T16:21:34.981Z,3.67
2022-10-11T16:24:04.894Z,7.53
2022-10-11T16:26:33.542Z,6.20
2022-10-11T16:29:01.810Z,6.37
2022-10-11T16:31:30.003Z,5.70
2022-10-11T16:33:59.836Z,3.70
2022-10-11T16:36:35.979Z,3.37
2022-10-11T16:39:09.059Z,4.47
2022-10-11T16:41:38.011Z,4.43
2022-10-11T16:44:06.671Z,3.60
2022-10-11T16:46:35.998Z,3.67
2022-10-11T16:49:06.383Z,3.50
2022-10-11T16:51:34.637Z,4.50
2022-10-11T16:54:02.931Z,6.47
2022-10-11T16:56:37.406Z,5.20
2022-10-11T16:59:08.340Z,6.37
2022-10-11T17:01:36.485Z,5.60
2022-10-11T17:04:06.285Z,5.00
2022-10-11T17:06:34.521Z,4.00
2022-10-11T17:09:02.837Z,4.30
2022-10-11T17:11:31.046Z,3.67
2022-10-11T17:13:59.286Z,3.50
2022-10-11T17:16:27.514Z,3.60
2022-10-11T17:18:55.715Z,3.50
2022-10-11T17:21:25.436Z,3.57
2022-10-11T17:23:53.932Z,3.40
2022-10-11T17:26:26.258Z,3.87
2022-10-11T17:28:55.176Z,3.30
2022-10-11T17:31:24.237Z,3.33
2022-10-11T17:33:53.178Z,2.90
2022-10-11T17:36:30.429Z,2.87
2022-10-11T17:39:00.490Z,2.97
2022-10-11T17:41:32.034Z,2.83
2022-10-11T17:44:01.739Z,2.50
2022-10-11T17:46:32.480Z,2.30
2022-10-11T17:49:01.574Z,2.67
2022-10-11T17:51:31.564Z,2.23
2022-10-11T17:54:00.014Z,3.10
2022-10-11T17:56:33.805Z,3.67
2022-10-11T17:59:04.930Z,3.60
2022-10-11T18:01:33.172Z,3.30
2022-10-11T18:04:03.659Z,3.47
2022-10-11T18:06:38.941Z,3.00
2022-10-11T18:09:07.786Z,3.10
2022-10-11T18:11:36.524Z,3.20
2022-10-11T18:14:05.543Z,3.30
2022-10-11T18:16:33.962Z,2.80
2022-10-11T18:19:04.584Z,3.00
2022-10-11T18:21:35.261Z,3.67
2022-10-11T18:24:05.854Z,3.67
2022-10-11T18:26:34.169Z,2.93
2022-10-11T18:29:04.021Z,3.60
2022-10-11T18:31:35.116Z,3.03
2022-10-11T18:34:03.749Z,4.17
2022-10-11T18:36:34.274Z,5.40
2022-10-11T18:39:06.837Z,4.27
2022-10-11T18:41:35.715Z,4.03
2022-10-11T18:44:06.376Z,5.73
2022-10-11T18:46:35.457Z,5.33
2022-10-11T18:49:04.142Z,4.50
2022-10-11T18:51:36.021Z,5.10
2022-10-11T18:54:05.586Z,7.83
2022-10-11T18:56:37.095Z,9.93
2022-10-11T18:59:07.562Z,7.80
2022-10-11T19:01:39.150Z,8.00
2022-10-11T19:04:10.474Z,8.27
2022-10-11T19:06:43.016Z,6.97
2022-10-11T19:09:14.052Z,7.10
2022-10-11T19:11:42.995Z,8.77
2022-10-11T19:14:15.133Z,9.13
2022-10-11T19:16:46.191Z,9.37
2022-10-11T19:19:14.726Z,9.57
2022-10-11T19:21:44.926Z,11.47
2022-10-11T19:24:13.100Z,14.80
2022-10-11T19:26:42.896Z,15.53
2022-10-11T19:29:14.661Z,14.77
2022-10-11T19:31:45.417Z,14.37
2022-10-11T19:34:14.521Z,12.90
2022-10-11T19:36:46.683Z,13.40
2022-10-11T19:39:16.033Z,14.77
2022-10-11T19:41:45.340Z,14.30
2022-10-11T19:44:14.417Z,14.67
2022-10-11T19:47:02.701Z,13.87
2022-10-11T19:49:31.289Z,13.00
2022-10-11T19:52:01.200Z,12.40
2022-10-11T19:54:29.559Z,13.17
2022-10-11T19:56:57.661Z,12.27
2022-10-11T19:59:26.804Z,12.60
2022-10-11T20:01:55.018Z,11.70
2022-10-11T20:04:50.695Z,11.70
2022-10-11T20:07:12.937Z,12.10
2022-10-11T20:09:41.125Z,11.53
2022-10-11T20:12:09.733Z,10.73
2022-10-11T20:14:37.793Z,11.20
2022-10-11T20:17:05.987Z,10.93
2022-10-11T20:19:34.237Z,11.47
2022-10-11T20:22:02.894Z,10.93
2022-10-11T20:24:34.368Z,11.00
2022-10-11T20:27:07.453Z,10.70
2022-10-11T20:29:35.614Z,11.33
2022-10-11T20:32:03.738Z,12.77
2022-10-11T20:34:31.998Z,12.40
2022-10-11T20:37:00.160Z,12.63
2022-10-11T20:39:28.513Z,12.87
2022-10-11T20:41:58.046Z,13.80
2022-10-11T20:44:26.343Z,13.07
2022-10-11T20:46:54.664Z,13.90
2022-10-11T20:49:22.800Z,12.77
2022-10-11T20:51:51.326Z,13.20
2022-10-11T20:54:19.573Z,14.47
2022-10-11T20:56:47.721Z,15.27
2022-10-11T20:59:17.267Z,16.43
2022-10-11T21:01:45.431Z,16.07
2022-10-11T21:04:19.973Z,15.37
2022-10-11T21:06:49.809Z,13.93
2022-10-11T21:09:19.038Z,15.07
2022-10-11T21:11:47.527Z,15.47
2022-10-11T21:14:17.303Z,15.17
2022-10-11T21:16:45.502Z,15.20
2022-10-11T21:19:16.299Z,15.00
2022-10-11T21:21:49.688Z,13.83
2022-10-11T21:24:21.380Z,14.33
2022-10-11T21:26:49.507Z,13.07
2022-10-11T21:29:19.350Z,13.13
2022-10-11T21:31:47.511Z,13.80
2022-10-11T21:34:16.052Z,12.73
2022-10-11T21:36:44.397Z,13.17
2022-10-11T21:39:12.502Z,12.43
2022-10-11T21:41:42.149Z,13.33
2022-10-11T21:44:10.325Z,12.70
2022-10-11T21:47:05.308Z,12.27
2022-10-11T21:49:27.897Z,11.87
2022-10-11T21:51:56.233Z,12.23
2022-10-11T21:54:24.382Z,11.77
2022-10-11T21:56:52.547Z,10.93
2022-10-11T21:59:20.674Z,10.93
2022-10-11T22:01:50.411Z,11.60
2022-10-11T22:04:18.565Z,12.57
2022-10-11T22:06:46.657Z,11.30
2022-10-11T22:09:15.005Z,11.43
2022-10-11T22:11:43.103Z,11.00
2022-10-11T22:14:11.249Z,11.57
2022-10-11T22:16:39.392Z,11.10
2022-10-11T22:19:08.937Z,12.60
2022-10-11T22:21:39.153Z,11.73
2022-10-11T22:24:09.517Z,11.73
2022-10-11T22:26:39.406Z,12.47
2022-10-11T22:29:07.572Z,11.47
2022-10-11T22:31:36.902Z,11.60
2022-10-11T22:34:05.121Z,11.43
2022-10-11T22:36:34.702Z,13.17
2022-10-11T22:39:07.576Z,11.53
2022-10-11T22:41:36.397Z,10.97
2022-10-11T22:44:05.485Z,10.63
2022-10-11T22:46:33.682Z,11.67
2022-10-11T22:49:01.802Z,10.97
2022-10-11T22:51:29.930Z,11.73
2022-10-11T22:53:59.425Z,11.13
2022-10-11T22:56:27.661Z,11.77
2022-10-11T22:58:55.727Z,11.53
2022-10-11T23:01:23.836Z,10.67
2022-10-11T23:03:52.176Z,11.60
2022-10-11T23:06:20.318Z,11.60
2022-10-11T23:08:48.513Z,10.00
2022-10-11T23:11:18.075Z,11.00
2022-10-11T23:13:46.183Z,10.63
2022-10-11T23:16:14.929Z,10.50
2022-10-11T23:18:43.557Z,11.03
2022-10-11T23:21:13.158Z,11.80
2022-10-11T23:23:41.365Z,11.50
2022-10-11T23:26:12.800Z,11.17
2022-10-11T23:28:43.330Z,10.47
2022-10-11T23:31:15.029Z,11.40
2022-10-11T23:33:43.449Z,11.33
2022-10-11T23:36:16.253Z,10.43
2022-10-11T23:38:44.771Z,10.40
2022-10-11T23:41:12.957Z,10.97
2022-10-11T23:43:42.483Z,10.40
2022-10-11T23:46:10.598Z,11.20
2022-10-11T23:48:38.859Z,11.00
2022-10-11T23:51:07.409Z,9.40
2022-10-11T23:53:36.970Z,10.63
2022-10-11T23:56:06.498Z,10.27
2022-10-11T23:58:35.028Z,10.03
